Tai Da — V3ZG7 — position and weather

sailwx.info

Track history (hours):
 
Tides and Currents Weather Stations Pressure Air Temp Water Temp Dewpoint Dewpoint Depression Visibility Wind Speed Wind Dir Waves Ship Positions

Tai Da

Last reported at 2018-Jan-12 08:08 UTC. Time now 2018-Jan-22 16:04 UTC.
Position N 34°18' E 134°31'.
Warning: this ship's position is 10 days out of date.

Length 74 m; draft 5.2 m.

Type: Cargo ship. MMSI: 312222000.

Date/timePositionNaut miles runAvg speedWind from/ knotsBaromVisibWave heightAir tempDewpointWater temp
2018-Jan-12 08:08N 34°18' E 134°31'14 8.9
2018-Jan-12 06:32N 34°09' E 134°44'0 8.5
2018-Jan-12 06:30N 34°09' E 134°44'4 8.6
2018-Jan-12 06:00N 34°05' E 134°48'10 8.5
2018-Jan-12 04:53N 33°58' E 134°55'4 8.6
2018-Jan-12 04:26N 33°56' E 134°59'195 6.4
2018-Jan-10 22:01N 34°33' E 138°50'0 5.0
2018-Jan-10 21:56N 34°33' E 138°51'2 5.0
2018-Jan-10 21:27N 34°33' E 138°54'2 4.4
2018-Jan-10 20:59N 34°33' E 138°56'2 3.8
2018-Jan-10 20:22N 34°34' E 138°59'3 6.7
2018-Jan-10 19:58N 34°36' E 139°01'3 6.3
2018-Jan-10 19:26N 34°38' E 139°04'4 6.5
2018-Jan-10 18:52N 34°41' E 139°07'6 6.3
2018-Jan-10 17:56N 34°45' E 139°12'20 5.8
2018-Jan-10 14:31N 34°58' E 139°30'1 6.6
2018-Jan-10 14:24N 34°59' E 139°31'3 7.1
2018-Jan-10 13:58N 35°01' E 139°34'4 7.5
2018-Jan-10 13:29N 35°03' E 139°37'4 8.2
2018-Jan-10 13:00N 35°06' E 139°40'4 8.2
2018-Jan-10 12:30N 35°09' E 139°44'4 8.2
2018-Jan-10 12:00N 35°13' E 139°46'4 8.1
2018-Jan-10 11:30N 35°17' E 139°45'4 8.8
2018-Jan-10 11:00N 35°20' E 139°43'4 8.5
2018-Jan-10 10:30N 35°25' E 139°43'4 8.8
2018-Jan-10 10:00N 35°28' E 139°47'3 6.2
2018-Jan-10 09:30N 35°30' E 139°45'1 1.0
2018-Jan-10 08:59N 35°31' E 139°45'0 0.0
2018-Jan-10 08:29N 35°31' E 139°45'0 0.0
2018-Jan-10 07:59N 35°31' E 139°45'0 0.0
2018-Jan-10 07:29N 35°31' E 139°45'0 0.0
2018-Jan-10 06:59N 35°31' E 139°45'0 0.0
2018-Jan-10 06:29N 35°31' E 139°45'0 0.0
2018-Jan-10 05:59N 35°31' E 139°45'0 0.0
2018-Jan-10 05:29N 35°31' E 139°45'0 0.0
2018-Jan-10 04:59N 35°31' E 139°45'0 0.0
2018-Jan-10 04:29N 35°31' E 139°45'0 0.0
2018-Jan-10 03:59N 35°31' E 139°45'0 0.0
2018-Jan-10 03:29N 35°31' E 139°45'0 0.0
2018-Jan-10 02:59N 35°31' E 139°45'0 0.0
2018-Jan-10 02:29N 35°31' E 139°45'0 0.0
2018-Jan-10 01:59N 35°31' E 139°45'0 0.0
2018-Jan-10 01:29N 35°31' E 139°45'0 0.0
2018-Jan-10 00:59N 35°31' E 139°45'0 0.0
2018-Jan-10 00:29N 35°31' E 139°45'0 0.0
2018-Jan-09 23:59N 35°31' E 139°45'0 0.0
2018-Jan-09 23:29N 35°31' E 139°45'0 0.0
2018-Jan-09 22:58N 35°31' E 139°45'0 0.0
2018-Jan-09 22:28N 35°31' E 139°45'0 0.0
2018-Jan-09 21:58N 35°31' E 139°45'0 0.0
2018-Jan-09 21:28N 35°31' E 139°45'0 0.0
2018-Jan-09 20:58N 35°31' E 139°45'0 0.0
2018-Jan-09 20:28N 35°31' E 139°45'0 0.0
2018-Jan-09 19:58N 35°31' E 139°45'0 0.0
2018-Jan-09 19:28N 35°31' E 139°45'0 0.0
2018-Jan-09 18:58N 35°31' E 139°45'0 0.0
2018-Jan-09 18:28N 35°31' E 139°45'0 0.0
2018-Jan-09 17:58N 35°31' E 139°45'0 0.0
2018-Jan-09 17:25N 35°31' E 139°45'0 0.0
2018-Jan-09 16:58N 35°31' E 139°45'0 0.0
2018-Jan-09 16:28N 35°31' E 139°45'0 0.0
2018-Jan-09 15:58N 35°31' E 139°45'0 0.0
2018-Jan-09 15:28N 35°31' E 139°45'0 0.0
2018-Jan-09 14:58N 35°31' E 139°45'0 0.0
2018-Jan-09 14:28N 35°31' E 139°45'0 0.0
2018-Jan-09 13:43N 35°31' E 139°45'0 0.0
2018-Jan-09 13:25N 35°31' E 139°45'0 0.0
2018-Jan-09 12:58N 35°31' E 139°45'0 0.0
2018-Jan-09 12:28N 35°31' E 139°45'0 0.0
2018-Jan-09 11:58N 35°31' E 139°45'0 0.0
2018-Jan-09 11:28N 35°31' E 139°45'0 0.0
2018-Jan-09 10:58N 35°31' E 139°45'0 0.0
2018-Jan-09 10:28N 35°31' E 139°45'0 0.0
2018-Jan-09 09:58N 35°31' E 139°45'0 0.0
2018-Jan-09 09:28N 35°31' E 139°45'0 0.0
2018-Jan-09 08:58N 35°31' E 139°45'0 0.0
2018-Jan-09 08:28N 35°31' E 139°45'0 0.0
2018-Jan-09 07:55N 35°31' E 139°45'0 0.0
2018-Jan-09 07:28N 35°31' E 139°45'0 0.0
2018-Jan-09 06:58N 35°31' E 139°45'0 0.0
2018-Jan-09 06:28N 35°31' E 139°45'0 0.0
2018-Jan-09 05:58N 35°31' E 139°45'0 0.0
2018-Jan-09 05:28N 35°31' E 139°45'0 0.0
2018-Jan-09 04:58N 35°31' E 139°45'0 0.0
2018-Jan-09 04:25N 35°31' E 139°45'0 0.0
2018-Jan-09 03:58N 35°31' E 139°45'0 0.0
2018-Jan-09 03:28N 35°31' E 139°45'0 0.0
2018-Jan-09 02:43N 35°31' E 139°45'0 0.0
2018-Jan-09 02:28N 35°31' E 139°45'0 0.0
2018-Jan-09 01:55N 35°31' E 139°45'0 0.0
2018-Jan-09 01:25N 35°31' E 139°45'0 0.0
2018-Jan-09 00:55N 35°31' E 139°45'0 0.0
2018-Jan-09 00:25N 35°31' E 139°45'0 0.0
2018-Jan-08 23:55N 35°31' E 139°45'0 0.0
2018-Jan-08 23:28N 35°31' E 139°45'0 0.0
2018-Jan-08 22:58N 35°31' E 139°45'0 0.0
2018-Jan-08 22:28N 35°31' E 139°45'0 0.0
2018-Jan-08 21:58N 35°31' E 139°45'0 0.8
2018-Jan-08 21:30N 35°30' E 139°45'3 6.8
2018-Jan-08 21:00N 35°28' E 139°42'1 2.3
2018-Jan-08 20:28N 35°27' E 139°43'0 0.1
2018-Jan-08 20:01N 35°27' E 139°43'0 0.1
2018-Jan-08 19:30N 35°27' E 139°43'0 0.0
2018-Jan-08 19:00N 35°27' E 139°43'0 0.0
2018-Jan-08 18:27N 35°27' E 139°43'0 0.0
2018-Jan-08 18:00N 35°27' E 139°43'0 0.0
2018-Jan-08 17:30N 35°27' E 139°43'0 0.1
2018-Jan-08 17:00N 35°27' E 139°43'0 0.0
2018-Jan-08 16:30N 35°27' E 139°43'0 0.0
2018-Jan-08 16:00N 35°27' E 139°43'0 0.0
2018-Jan-08 15:30N 35°27' E 139°43'0 0.0
2018-Jan-08 15:00N 35°27' E 139°43'0 0.0
2018-Jan-08 14:30N 35°27' E 139°43'0 0.0
2018-Jan-08 14:00N 35°27' E 139°43'0 0.0
2018-Jan-08 13:30N 35°27' E 139°43'0 0.0
2018-Jan-08 13:00N 35°27' E 139°43'0 0.0
2018-Jan-08 12:30N 35°27' E 139°43'0 0.1
2018-Jan-08 11:57N 35°27' E 139°43'0 0.0
2018-Jan-08 11:30N 35°27' E 139°43'0 0.1
2018-Jan-08 11:00N 35°27' E 139°43'0 0.1
2018-Jan-08 10:30N 35°27' E 139°43'0 0.0
2018-Jan-08 10:00N 35°27' E 139°43'0 0.0
2018-Jan-08 09:30N 35°27' E 139°43'0 0.0
2018-Jan-08 09:00N 35°27' E 139°43'0 0.1
2018-Jan-08 08:30N 35°27' E 139°43'2 3.4
2018-Jan-08 08:00N 35°26' E 139°45'4 7.0
2018-Jan-08 07:30N 35°23' E 139°45'5 9.4
2018-Jan-08 07:00N 35°18' E 139°45'5 9.2
2018-Jan-08 06:30N 35°14' E 139°47'510.2
2018-Jan-08 06:00N 35°08' E 139°47'510.4
2018-Jan-08 05:30N 35°05' E 139°42'510.4
2018-Jan-08 05:00N 35°01' E 139°38'610.5
2018-Jan-08 04:26N 34°57' E 139°32'1711.9
2018-Jan-08 02:57N 34°46' E 139°16'811.8
2018-Jan-08 02:18N 34°41' E 139°08'311.5
2018-Jan-08 02:01N 34°39' E 139°05'810.2
2018-Jan-08 01:13N 34°34' E 138°58'2 9.0
2018-Jan-08 01:00N 34°33' E 138°56'198 8.7
2018-Jan-07 02:18N 33°52' E 135°02'3 9.2
2018-Jan-07 01:59N 33°55' E 135°01'5 9.8
2018-Jan-07 01:30N 34°00' E 134°60'10 9.7
2018-Jan-07 00:30N 34°10' E 134°59'510.3
2018-Jan-07 00:00N 34°15' E 134°59'5 9.6
2018-Jan-06 23:30N 34°20' E 134°59'510.1
2018-Jan-06 23:00N 34°24' E 135°00'5 9.9
2018-Jan-06 22:31N 34°29' E 135°01'5 9.6
2018-Jan-06 22:00N 34°34' E 135°03'5 9.2
2018-Jan-06 21:31N 34°37' E 134°58'612.8
2018-Jan-06 21:00N 34°34' E 134°51'611.2
2018-Jan-06 20:30N 34°32' E 134°45'510.6
2018-Jan-06 20:01N 34°30' E 134°39'510.3
2018-Jan-06 19:30N 34°28' E 134°33'95 9.1
2018-Jan-06 08:59N 34°04' E 132°42'4 8.5
2018-Jan-06 08:29N 34°02' E 132°38'1 2.2
2018-Jan-06 07:59N 34°01' E 132°36'510.1
2018-Jan-06 07:30N 34°05' E 132°40'2 2.5
2018-Jan-06 06:51N 34°04' E 132°39'4 9.2
2018-Jan-06 06:28N 34°01' E 132°36'10 8.7
2018-Jan-06 05:17N 34°04' E 132°25'5 9.8
2018-Jan-06 04:47N 34°08' E 132°21'3 9.6
2018-Jan-06 04:26N 34°12' E 132°20'4 9.4
2018-Jan-06 04:00N 34°16' E 132°21'5 9.5
2018-Jan-06 03:30N 34°18' E 132°26'3 6.8
2018-Jan-06 03:00N 34°16' E 132°30'4 8.5
2018-Jan-06 02:31N 34°12' E 132°30'0 0.7
2018-Jan-06 01:53N 34°12' E 132°29'0 0.0
2018-Jan-06 01:17N 34°12' E 132°29'0 0.0
2018-Jan-06 00:44N 34°12' E 132°29'0 0.0
2018-Jan-06 00:20N 34°12' E 132°29'0 0.0
2018-Jan-05 23:59N 34°12' E 132°29'0 0.0
2018-Jan-05 23:26N 34°12' E 132°29'0 0.0
2018-Jan-05 22:59N 34°12' E 132°29'0 0.0
2018-Jan-05 22:29N 34°12' E 132°29'0 0.0
2018-Jan-05 21:56N 34°12' E 132°29'0 0.0
2018-Jan-05 21:23N 34°12' E 132°29'0 0.0
2018-Jan-05 20:59N 34°12' E 132°29'0 0.0
2018-Jan-05 20:29N 34°12' E 132°29'0 0.0
2018-Jan-05 19:59N 34°12' E 132°29'0 0.0
2018-Jan-05 19:26N 34°12' E 132°29'0 0.0
2018-Jan-05 18:59N 34°12' E 132°29'0 0.0
2018-Jan-05 18:29N 34°12' E 132°29'0 0.0
2018-Jan-05 17:59N 34°12' E 132°29'0 0.0
2018-Jan-05 17:29N 34°12' E 132°29'0 0.0
2018-Jan-05 16:50N 34°12' E 132°29'0 0.0
2018-Jan-05 16:16N 34°12' E 132°29'0 0.0
2018-Jan-05 15:55N 34°12' E 132°29'0 0.0
2018-Jan-05 15:28N 34°12' E 132°29'0 0.0
2018-Jan-05 14:58N 34°12' E 132°29'0 0.0
2018-Jan-05 14:22N 34°12' E 132°29'0 0.0
2018-Jan-05 13:58N 34°12' E 132°29'0 0.0
2018-Jan-05 13:28N 34°12' E 132°29'0 0.0
2018-Jan-05 12:58N 34°12' E 132°29'0 0.0
2018-Jan-05 12:28N 34°12' E 132°29'0 0.0
2018-Jan-05 11:55N 34°12' E 132°29'0 0.0
2018-Jan-05 11:28N 34°12' E 132°29'0 0.0
2018-Jan-05 10:55N 34°12' E 132°29'0 0.0
2018-Jan-05 10:28N 34°12' E 132°29'0 0.0
2018-Jan-05 09:58N 34°12' E 132°29'0 0.0
2018-Jan-05 09:28N 34°12' E 132°29'0 0.0
2018-Jan-05 08:55N 34°12' E 132°29'0 0.0
2018-Jan-05 08:28N 34°12' E 132°29'0 0.0
2018-Jan-05 07:55N 34°12' E 132°29'0 0.0
2018-Jan-05 06:49N 34°12' E 132°29'0 0.0
2018-Jan-05 06:22N 34°12' E 132°29'0 0.0
2018-Jan-05 05:52N 34°12' E 132°29'0 0.0
2018-Jan-05 05:25N 34°12' E 132°29'0 0.0
2018-Jan-05 04:55N 34°12' E 132°29'0 0.0
2018-Jan-05 04:25N 34°12' E 132°29'0 0.0
2018-Jan-05 03:58N 34°12' E 132°29'0 0.0
2018-Jan-05 03:28N 34°12' E 132°29'0 0.0
2018-Jan-05 02:58N 34°12' E 132°29'0 0.0
2018-Jan-05 02:28N 34°12' E 132°29'0 0.0
2018-Jan-05 01:58N 34°12' E 132°29'0 0.0
2018-Jan-05 01:28N 34°12' E 132°29'0 0.0
2018-Jan-05 00:55N 34°12' E 132°29'0 0.0
2018-Jan-05 00:28N 34°12' E 132°29'0 0.0
2018-Jan-04 23:58N 34°12' E 132°29'0 0.0
2018-Jan-04 23:28N 34°12' E 132°29'0 0.0
2018-Jan-04 22:58N 34°12' E 132°29'0 0.0
2018-Jan-04 22:25N 34°12' E 132°29'0 0.0
2018-Jan-04 21:58N 34°12' E 132°29'0 0.0
2018-Jan-04 21:28N 34°12' E 132°29'0 0.0
2018-Jan-04 20:58N 34°12' E 132°29'0 0.0
2018-Jan-04 20:28N 34°12' E 132°29'0 0.0
2018-Jan-04 19:58N 34°12' E 132°29'0 0.0
2018-Jan-04 19:25N 34°12' E 132°29'0 0.0
2018-Jan-04 18:58N 34°12' E 132°29'0 0.0
2018-Jan-04 18:25N 34°12' E 132°29'0 0.0
2018-Jan-04 17:58N 34°12' E 132°29'0 0.0
2018-Jan-04 17:28N 34°12' E 132°29'0 0.0
2018-Jan-04 16:58N 34°12' E 132°29'0 0.0
2018-Jan-04 16:28N 34°12' E 132°29'0 0.0
2018-Jan-04 15:58N 34°12' E 132°29'0 0.0
2018-Jan-04 15:25N 34°12' E 132°29'0 0.0
2018-Jan-04 14:58N 34°12' E 132°29'0 0.0
2018-Jan-04 14:25N 34°12' E 132°29'0 0.0
2018-Jan-04 13:58N 34°12' E 132°29'0 0.0
2018-Jan-04 13:25N 34°12' E 132°29'0 0.0
2018-Jan-04 12:55N 34°12' E 132°29'0 0.0
2018-Jan-04 12:25N 34°12' E 132°29'0 0.0
2018-Jan-04 11:58N 34°12' E 132°29'0 0.0
2018-Jan-04 11:28N 34°12' E 132°29'0 0.0
2018-Jan-04 11:01N 34°12' E 132°29'0 0.0
2018-Jan-04 10:31N 34°12' E 132°29'0 0.0
2018-Jan-04 10:00N 34°12' E 132°29'0 0.0
2018-Jan-04 09:27N 34°12' E 132°29'0 0.0
2018-Jan-04 09:00N 34°12' E 132°29'0 0.0
2018-Jan-04 08:30N 34°12' E 132°29'0 0.0
2018-Jan-04 07:57N 34°12' E 132°29'0 0.0
2018-Jan-04 07:30N 34°12' E 132°29'0 0.0
2018-Jan-04 07:00N 34°12' E 132°29'0 0.0
2018-Jan-04 06:30N 34°12' E 132°29'0 0.0
2018-Jan-04 06:00N 34°12' E 132°29'0 0.0
2018-Jan-04 05:30N 34°12' E 132°29'0 0.0
2018-Jan-04 05:00N 34°12' E 132°29'0 0.0
2018-Jan-04 04:30N 34°12' E 132°29'0 0.0
2018-Jan-04 03:57N 34°12' E 132°29'0 0.0
2018-Jan-04 03:27N 34°12' E 132°29'0 0.0
2018-Jan-04 02:57N 34°12' E 132°29'0 0.0
2018-Jan-04 02:30N 34°12' E 132°29'0 0.0
2018-Jan-04 02:00N 34°12' E 132°29'0 0.0
2018-Jan-04 01:30N 34°12' E 132°29'0 0.0
2018-Jan-04 01:00N 34°12' E 132°29'0 0.0
2018-Jan-04 00:30N 34°12' E 132°29'0 0.0
2018-Jan-03 23:57N 34°12' E 132°29'0 0.0
2018-Jan-03 23:30N 34°12' E 132°29'0 0.0
2018-Jan-03 23:00N 34°12' E 132°29'0 0.9
2018-Jan-03 22:30N 34°12' E 132°30'1 1.2
2018-Jan-03 21:58N 34°13' E 132°30'0 0.0
2018-Jan-03 21:28N 34°13' E 132°30'0 0.0
2018-Jan-03 20:58N 34°13' E 132°30'0 0.0
2018-Jan-03 20:28N 34°13' E 132°30'0 0.1
2018-Jan-03 19:58N 34°13' E 132°30'0 0.0
2018-Jan-03 19:28N 34°13' E 132°30'0 0.0
2018-Jan-03 18:58N 34°13' E 132°30'0 0.0
2018-Jan-03 18:28N 34°13' E 132°30'0 0.0
2018-Jan-03 17:58N 34°13' E 132°30'0 0.0
2018-Jan-03 17:28N 34°13' E 132°30'0 0.1
2018-Jan-03 16:58N 34°13' E 132°30'0 0.0
2018-Jan-03 16:25N 34°13' E 132°30'0 0.0
2018-Jan-03 15:58N 34°13' E 132°30'0 0.0
2018-Jan-03 15:28N 34°13' E 132°30'0 0.0
2018-Jan-03 14:58N 34°13' E 132°30'0 0.0
2018-Jan-03 14:25N 34°13' E 132°30'0 0.0
2018-Jan-03 13:58N 34°13' E 132°30'0 0.0
2018-Jan-03 13:28N 34°13' E 132°30'0 0.0
2018-Jan-03 12:58N 34°13' E 132°30'0 0.0
2018-Jan-03 12:28N 34°13' E 132°30'0 0.0
2018-Jan-03 11:55N 34°13' E 132°30'0 0.0
2018-Jan-03 11:28N 34°13' E 132°30'0 0.0
2018-Jan-03 10:58N 34°13' E 132°30'0 0.0
2018-Jan-03 10:28N 34°13' E 132°30'0 0.0
2018-Jan-03 09:58N 34°13' E 132°30'0 0.0
2018-Jan-03 09:28N 34°13' E 132°30'0 0.0
2018-Jan-03 08:58N 34°13' E 132°30'0 0.0
2018-Jan-03 08:28N 34°13' E 132°30'0 0.0
2018-Jan-03 07:58N 34°13' E 132°30'0 0.0
2018-Jan-03 07:25N 34°13' E 132°30'0 0.0
2018-Jan-03 06:58N 34°13' E 132°30'0 0.0
2018-Jan-03 06:28N 34°13' E 132°30'0 0.0
2018-Jan-03 05:58N 34°13' E 132°30'0 0.0
2018-Jan-03 05:28N 34°13' E 132°30'0 0.0
2018-Jan-03 04:58N 34°13' E 132°30'0 0.0
2018-Jan-03 04:28N 34°13' E 132°30'0 0.0
2018-Jan-03 03:58N 34°13' E 132°30'0 0.0
2018-Jan-03 03:25N 34°13' E 132°30'0 0.0
2018-Jan-03 02:58N 34°13' E 132°30'0 0.0
2018-Jan-03 02:28N 34°13' E 132°30'0 0.0
2018-Jan-03 01:58N 34°13' E 132°30'0 0.0
2018-Jan-03 01:25N 34°13' E 132°30'0 0.0
2018-Jan-03 00:58N 34°13' E 132°30'0 0.0
2018-Jan-03 00:28N 34°13' E 132°30'0 0.0
2018-Jan-02 23:58N 34°13' E 132°30'0 0.0
2018-Jan-02 23:28N 34°13' E 132°30'0 0.0
2018-Jan-02 22:58N 34°13' E 132°30'0 0.0
2018-Jan-02 22:28N 34°13' E 132°30'0 0.1
2018-Jan-02 21:58N 34°13' E 132°30'0 0.0
2018-Jan-02 21:28N 34°13' E 132°30'0 0.0
2018-Jan-02 20:58N 34°13' E 132°30'0 0.0
2018-Jan-02 20:25N 34°13' E 132°30'0 0.0
2018-Jan-02 19:58N 34°13' E 132°30'0 0.0
2018-Jan-02 19:27N 34°13' E 132°30'0 0.0
2018-Jan-02 18:54N 34°13' E 132°30'0 0.0
2018-Jan-02 18:30N 34°13' E 132°30'0 0.0
2018-Jan-02 18:00N 34°13' E 132°30'0 0.1
2018-Jan-02 17:27N 34°13' E 132°30'3 5.8
2018-Jan-02 17:01N 34°15' E 132°31'3 7.0
2018-Jan-02 16:31N 34°18' E 132°28'5 9.0
2018-Jan-02 16:00N 34°16' E 132°23'4 7.6
2018-Jan-02 15:30N 34°13' E 132°20'4 8.7
2018-Jan-02 15:00N 34°09' E 132°22'11 8.7
2018-Jan-02 13:42N 34°00' E 132°31'2 7.5
2018-Jan-02 13:29N 33°59' E 132°32'42 8.2
2018-Jan-02 08:22N 33°45' E 131°44'  
Track history (hours):
 
Tides and Currents Weather Stations Pressure Air Temp Water Temp Dewpoint Dewpoint Depression Visibility Wind Speed Wind Dir Waves Ship Positions

Tai Da

Last reported at 2018-Jan-12 08:08 UTC. Time now 2018-Jan-22 16:04 UTC.
Position N 34°18' E 134°31'.
Warning: this ship's position is 10 days out of date.

Length 74 m; draft 5.2 m.

Type: Cargo ship. MMSI: 312222000.

Date/timePositionNaut miles runAvg speedWind from/ knotsBaromVisibWave heightAir tempDewpointWater temp
2018-Jan-12 08:08N 34°18' E 134°31'14 8.9
2018-Jan-12 06:32N 34°09' E 134°44'0 8.5
2018-Jan-12 06:30N 34°09' E 134°44'4 8.6
2018-Jan-12 06:00N 34°05' E 134°48'10 8.5
2018-Jan-12 04:53N 33°58' E 134°55'4 8.6
2018-Jan-12 04:26N 33°56' E 134°59'195 6.4
2018-Jan-10 22:01N 34°33' E 138°50'0 5.0
2018-Jan-10 21:56N 34°33' E 138°51'2 5.0
2018-Jan-10 21:27N 34°33' E 138°54'2 4.4
2018-Jan-10 20:59N 34°33' E 138°56'2 3.8
2018-Jan-10 20:22N 34°34' E 138°59'3 6.7
2018-Jan-10 19:58N 34°36' E 139°01'3 6.3
2018-Jan-10 19:26N 34°38' E 139°04'4 6.5
2018-Jan-10 18:52N 34°41' E 139°07'6 6.3
2018-Jan-10 17:56N 34°45' E 139°12'20 5.8
2018-Jan-10 14:31N 34°58' E 139°30'1 6.6
2018-Jan-10 14:24N 34°59' E 139°31'3 7.1
2018-Jan-10 13:58N 35°01' E 139°34'4 7.5
2018-Jan-10 13:29N 35°03' E 139°37'4 8.2
2018-Jan-10 13:00N 35°06' E 139°40'4 8.2
2018-Jan-10 12:30N 35°09' E 139°44'4 8.2
2018-Jan-10 12:00N 35°13' E 139°46'4 8.1
2018-Jan-10 11:30N 35°17' E 139°45'4 8.8
2018-Jan-10 11:00N 35°20' E 139°43'4 8.5
2018-Jan-10 10:30N 35°25' E 139°43'4 8.8
2018-Jan-10 10:00N 35°28' E 139°47'3 6.2
2018-Jan-10 09:30N 35°30' E 139°45'1 1.0
2018-Jan-10 08:59N 35°31' E 139°45'0 0.0
2018-Jan-10 08:29N 35°31' E 139°45'0 0.0
2018-Jan-10 07:59N 35°31' E 139°45'0 0.0
2018-Jan-10 07:29N 35°31' E 139°45'0 0.0
2018-Jan-10 06:59N 35°31' E 139°45'0 0.0
2018-Jan-10 06:29N 35°31' E 139°45'0 0.0
2018-Jan-10 05:59N 35°31' E 139°45'0 0.0
2018-Jan-10 05:29N 35°31' E 139°45'0 0.0
2018-Jan-10 04:59N 35°31' E 139°45'0 0.0
2018-Jan-10 04:29N 35°31' E 139°45'0 0.0
2018-Jan-10 03:59N 35°31' E 139°45'0 0.0
2018-Jan-10 03:29N 35°31' E 139°45'0 0.0
2018-Jan-10 02:59N 35°31' E 139°45'0 0.0
2018-Jan-10 02:29N 35°31' E 139°45'0 0.0
2018-Jan-10 01:59N 35°31' E 139°45'0 0.0
2018-Jan-10 01:29N 35°31' E 139°45'0 0.0
2018-Jan-10 00:59N 35°31' E 139°45'0 0.0
2018-Jan-10 00:29N 35°31' E 139°45'0 0.0
2018-Jan-09 23:59N 35°31' E 139°45'0 0.0
2018-Jan-09 23:29N 35°31' E 139°45'0 0.0
2018-Jan-09 22:58N 35°31' E 139°45'0 0.0
2018-Jan-09 22:28N 35°31' E 139°45'0 0.0
2018-Jan-09 21:58N 35°31' E 139°45'0 0.0
2018-Jan-09 21:28N 35°31' E 139°45'0 0.0
2018-Jan-09 20:58N 35°31' E 139°45'0 0.0
2018-Jan-09 20:28N 35°31' E 139°45'0 0.0
2018-Jan-09 19:58N 35°31' E 139°45'0 0.0
2018-Jan-09 19:28N 35°31' E 139°45'0 0.0
2018-Jan-09 18:58N 35°31' E 139°45'0 0.0
2018-Jan-09 18:28N 35°31' E 139°45'0 0.0
2018-Jan-09 17:58N 35°31' E 139°45'0 0.0
2018-Jan-09 17:25N 35°31' E 139°45'0 0.0
2018-Jan-09 16:58N 35°31' E 139°45'0 0.0
2018-Jan-09 16:28N 35°31' E 139°45'0 0.0
2018-Jan-09 15:58N 35°31' E 139°45'0 0.0
2018-Jan-09 15:28N 35°31' E 139°45'0 0.0
2018-Jan-09 14:58N 35°31' E 139°45'0 0.0
2018-Jan-09 14:28N 35°31' E 139°45'0 0.0
2018-Jan-09 13:43N 35°31' E 139°45'0 0.0
2018-Jan-09 13:25N 35°31' E 139°45'0 0.0
2018-Jan-09 12:58N 35°31' E 139°45'0 0.0
2018-Jan-09 12:28N 35°31' E 139°45'0 0.0
2018-Jan-09 11:58N 35°31' E 139°45'0 0.0
2018-Jan-09 11:28N 35°31' E 139°45'0 0.0
2018-Jan-09 10:58N 35°31' E 139°45'0 0.0
2018-Jan-09 10:28N 35°31' E 139°45'0 0.0
2018-Jan-09 09:58N 35°31' E 139°45'0 0.0
2018-Jan-09 09:28N 35°31' E 139°45'0 0.0
2018-Jan-09 08:58N 35°31' E 139°45'0 0.0
2018-Jan-09 08:28N 35°31' E 139°45'0 0.0
2018-Jan-09 07:55N 35°31' E 139°45'0 0.0
2018-Jan-09 07:28N 35°31' E 139°45'0 0.0
2018-Jan-09 06:58N 35°31' E 139°45'0 0.0
2018-Jan-09 06:28N 35°31' E 139°45'0 0.0
2018-Jan-09 05:58N 35°31' E 139°45'0 0.0
2018-Jan-09 05:28N 35°31' E 139°45'0 0.0
2018-Jan-09 04:58N 35°31' E 139°45'0 0.0
2018-Jan-09 04:25N 35°31' E 139°45'0 0.0
2018-Jan-09 03:58N 35°31' E 139°45'0 0.0
2018-Jan-09 03:28N 35°31' E 139°45'0 0.0
2018-Jan-09 02:43N 35°31' E 139°45'0 0.0
2018-Jan-09 02:28N 35°31' E 139°45'0 0.0
2018-Jan-09 01:55N 35°31' E 139°45'0 0.0
2018-Jan-09 01:25N 35°31' E 139°45'0 0.0
2018-Jan-09 00:55N 35°31' E 139°45'0 0.0
2018-Jan-09 00:25N 35°31' E 139°45'0 0.0
2018-Jan-08 23:55N 35°31' E 139°45'0 0.0
2018-Jan-08 23:28N 35°31' E 139°45'0 0.0
2018-Jan-08 22:58N 35°31' E 139°45'0 0.0
2018-Jan-08 22:28N 35°31' E 139°45'0 0.0
2018-Jan-08 21:58N 35°31' E 139°45'0 0.8
2018-Jan-08 21:30N 35°30' E 139°45'3 6.8
2018-Jan-08 21:00N 35°28' E 139°42'1 2.3
2018-Jan-08 20:28N 35°27' E 139°43'0 0.1
2018-Jan-08 20:01N 35°27' E 139°43'0 0.1
2018-Jan-08 19:30N 35°27' E 139°43'0 0.0
2018-Jan-08 19:00N 35°27' E 139°43'0 0.0
2018-Jan-08 18:27N 35°27' E 139°43'0 0.0
2018-Jan-08 18:00N 35°27' E 139°43'0 0.0
2018-Jan-08 17:30N 35°27' E 139°43'0 0.1
2018-Jan-08 17:00N 35°27' E 139°43'0 0.0
2018-Jan-08 16:30N 35°27' E 139°43'0 0.0
2018-Jan-08 16:00N 35°27' E 139°43'0 0.0
2018-Jan-08 15:30N 35°27' E 139°43'0 0.0
2018-Jan-08 15:00N 35°27' E 139°43'0 0.0
2018-Jan-08 14:30N 35°27' E 139°43'0 0.0
2018-Jan-08 14:00N 35°27' E 139°43'0 0.0
2018-Jan-08 13:30N 35°27' E 139°43'0 0.0
2018-Jan-08 13:00N 35°27' E 139°43'0 0.0
2018-Jan-08 12:30N 35°27' E 139°43'0 0.1
2018-Jan-08 11:57N 35°27' E 139°43'0 0.0
2018-Jan-08 11:30N 35°27' E 139°43'0 0.1
2018-Jan-08 11:00N 35°27' E 139°43'0 0.1
2018-Jan-08 10:30N 35°27' E 139°43'0 0.0
2018-Jan-08 10:00N 35°27' E 139°43'0 0.0
2018-Jan-08 09:30N 35°27' E 139°43'0 0.0
2018-Jan-08 09:00N 35°27' E 139°43'0 0.1
2018-Jan-08 08:30N 35°27' E 139°43'2 3.4
2018-Jan-08 08:00N 35°26' E 139°45'4 7.0
2018-Jan-08 07:30N 35°23' E 139°45'5 9.4
2018-Jan-08 07:00N 35°18' E 139°45'5 9.2
2018-Jan-08 06:30N 35°14' E 139°47'510.2
2018-Jan-08 06:00N 35°08' E 139°47'510.4
2018-Jan-08 05:30N 35°05' E 139°42'510.4
2018-Jan-08 05:00N 35°01' E 139°38'610.5
2018-Jan-08 04:26N 34°57' E 139°32'1711.9
2018-Jan-08 02:57N 34°46' E 139°16'811.8
2018-Jan-08 02:18N 34°41' E 139°08'311.5
2018-Jan-08 02:01N 34°39' E 139°05'810.2
2018-Jan-08 01:13N 34°34' E 138°58'2 9.0
2018-Jan-08 01:00N 34°33' E 138°56'198 8.7
2018-Jan-07 02:18N 33°52' E 135°02'3 9.2
2018-Jan-07 01:59N 33°55' E 135°01'5 9.8
2018-Jan-07 01:30N 34°00' E 134°60'10 9.7
2018-Jan-07 00:30N 34°10' E 134°59'510.3
2018-Jan-07 00:00N 34°15' E 134°59'5 9.6
2018-Jan-06 23:30N 34°20' E 134°59'510.1
2018-Jan-06 23:00N 34°24' E 135°00'5 9.9
2018-Jan-06 22:31N 34°29' E 135°01'5 9.6
2018-Jan-06 22:00N 34°34' E 135°03'5 9.2
2018-Jan-06 21:31N 34°37' E 134°58'612.8
2018-Jan-06 21:00N 34°34' E 134°51'611.2
2018-Jan-06 20:30N 34°32' E 134°45'510.6
2018-Jan-06 20:01N 34°30' E 134°39'510.3
2018-Jan-06 19:30N 34°28' E 134°33'95 9.1
2018-Jan-06 08:59N 34°04' E 132°42'4 8.5
2018-Jan-06 08:29N 34°02' E 132°38'1 2.2
2018-Jan-06 07:59N 34°01' E 132°36'510.1
2018-Jan-06 07:30N 34°05' E 132°40'2 2.5
2018-Jan-06 06:51N 34°04' E 132°39'4 9.2
2018-Jan-06 06:28N 34°01' E 132°36'10 8.7
2018-Jan-06 05:17N 34°04' E 132°25'5 9.8
2018-Jan-06 04:47N 34°08' E 132°21'3 9.6
2018-Jan-06 04:26N 34°12' E 132°20'4 9.4
2018-Jan-06 04:00N 34°16' E 132°21'5 9.5
2018-Jan-06 03:30N 34°18' E 132°26'3 6.8
2018-Jan-06 03:00N 34°16' E 132°30'4 8.5
2018-Jan-06 02:31N 34°12' E 132°30'0 0.7
2018-Jan-06 01:53N 34°12' E 132°29'0 0.0
2018-Jan-06 01:17N 34°12' E 132°29'0 0.0
2018-Jan-06 00:44N 34°12' E 132°29'0 0.0
2018-Jan-06 00:20N 34°12' E 132°29'0 0.0
2018-Jan-05 23:59N 34°12' E 132°29'0 0.0
2018-Jan-05 23:26N 34°12' E 132°29'0 0.0
2018-Jan-05 22:59N 34°12' E 132°29'0 0.0
2018-Jan-05 22:29N 34°12' E 132°29'0 0.0
2018-Jan-05 21:56N 34°12' E 132°29'0 0.0
2018-Jan-05 21:23N 34°12' E 132°29'0 0.0
2018-Jan-05 20:59N 34°12' E 132°29'0 0.0
2018-Jan-05 20:29N 34°12' E 132°29'0 0.0
2018-Jan-05 19:59N 34°12' E 132°29'0 0.0
2018-Jan-05 19:26N 34°12' E 132°29'0 0.0
2018-Jan-05 18:59N 34°12' E 132°29'0 0.0
2018-Jan-05 18:29N 34°12' E 132°29'0 0.0
2018-Jan-05 17:59N 34°12' E 132°29'0 0.0
2018-Jan-05 17:29N 34°12' E 132°29'0 0.0
2018-Jan-05 16:50N 34°12' E 132°29'0 0.0
2018-Jan-05 16:16N 34°12' E 132°29'0 0.0
2018-Jan-05 15:55N 34°12' E 132°29'0 0.0
2018-Jan-05 15:28N 34°12' E 132°29'0 0.0
2018-Jan-05 14:58N 34°12' E 132°29'0 0.0
2018-Jan-05 14:22N 34°12' E 132°29'0 0.0
2018-Jan-05 13:58N 34°12' E 132°29'0 0.0
2018-Jan-05 13:28N 34°12' E 132°29'0 0.0
2018-Jan-05 12:58N 34°12' E 132°29'0 0.0
2018-Jan-05 12:28N 34°12' E 132°29'0 0.0
2018-Jan-05 11:55N 34°12' E 132°29'0 0.0
2018-Jan-05 11:28N 34°12' E 132°29'0 0.0
2018-Jan-05 10:55N 34°12' E 132°29'0 0.0
2018-Jan-05 10:28N 34°12' E 132°29'0 0.0
2018-Jan-05 09:58N 34°12' E 132°29'0 0.0
2018-Jan-05 09:28N 34°12' E 132°29'0 0.0
2018-Jan-05 08:55N 34°12' E 132°29'0 0.0
2018-Jan-05 08:28N 34°12' E 132°29'0 0.0
2018-Jan-05 07:55N 34°12' E 132°29'0 0.0
2018-Jan-05 06:49N 34°12' E 132°29'0 0.0
2018-Jan-05 06:22N 34°12' E 132°29'0 0.0
2018-Jan-05 05:52N 34°12' E 132°29'0 0.0
2018-Jan-05 05:25N 34°12' E 132°29'0 0.0
2018-Jan-05 04:55N 34°12' E 132°29'0 0.0
2018-Jan-05 04:25N 34°12' E 132°29'0 0.0
2018-Jan-05 03:58N 34°12' E 132°29'0 0.0
2018-Jan-05 03:28N 34°12' E 132°29'0 0.0
2018-Jan-05 02:58N 34°12' E 132°29'0 0.0
2018-Jan-05 02:28N 34°12' E 132°29'0 0.0
2018-Jan-05 01:58N 34°12' E 132°29'0 0.0
2018-Jan-05 01:28N 34°12' E 132°29'0 0.0
2018-Jan-05 00:55N 34°12' E 132°29'0 0.0
2018-Jan-05 00:28N 34°12' E 132°29'0 0.0
2018-Jan-04 23:58N 34°12' E 132°29'0 0.0
2018-Jan-04 23:28N 34°12' E 132°29'0 0.0
2018-Jan-04 22:58N 34°12' E 132°29'0 0.0
2018-Jan-04 22:25N 34°12' E 132°29'0 0.0
2018-Jan-04 21:58N 34°12' E 132°29'0 0.0
2018-Jan-04 21:28N 34°12' E 132°29'0 0.0
2018-Jan-04 20:58N 34°12' E 132°29'0 0.0
2018-Jan-04 20:28N 34°12' E 132°29'0 0.0
2018-Jan-04 19:58N 34°12' E 132°29'0 0.0
2018-Jan-04 19:25N 34°12' E 132°29'0 0.0
2018-Jan-04 18:58N 34°12' E 132°29'0 0.0
2018-Jan-04 18:25N 34°12' E 132°29'0 0.0
2018-Jan-04 17:58N 34°12' E 132°29'0 0.0
2018-Jan-04 17:28N 34°12' E 132°29'0 0.0
2018-Jan-04 16:58N 34°12' E 132°29'0 0.0
2018-Jan-04 16:28N 34°12' E 132°29'0 0.0
2018-Jan-04 15:58N 34°12' E 132°29'0 0.0
2018-Jan-04 15:25N 34°12' E 132°29'0 0.0
2018-Jan-04 14:58N 34°12' E 132°29'0 0.0
2018-Jan-04 14:25N 34°12' E 132°29'0 0.0
2018-Jan-04 13:58N 34°12' E 132°29'0 0.0
2018-Jan-04 13:25N 34°12' E 132°29'0 0.0
2018-Jan-04 12:55N 34°12' E 132°29'0 0.0
2018-Jan-04 12:25N 34°12' E 132°29'0 0.0
2018-Jan-04 11:58N 34°12' E 132°29'0 0.0
2018-Jan-04 11:28N 34°12' E 132°29'0 0.0
2018-Jan-04 11:01N 34°12' E 132°29'0 0.0
2018-Jan-04 10:31N 34°12' E 132°29'0 0.0
2018-Jan-04 10:00N 34°12' E 132°29'0 0.0
2018-Jan-04 09:27N 34°12' E 132°29'0 0.0
2018-Jan-04 09:00N 34°12' E 132°29'0 0.0
2018-Jan-04 08:30N 34°12' E 132°29'0 0.0
2018-Jan-04 07:57N 34°12' E 132°29'0 0.0
2018-Jan-04 07:30N 34°12' E 132°29'0 0.0
2018-Jan-04 07:00N 34°12' E 132°29'0 0.0
2018-Jan-04 06:30N 34°12' E 132°29'0 0.0
2018-Jan-04 06:00N 34°12' E 132°29'0 0.0
2018-Jan-04 05:30N 34°12' E 132°29'0 0.0
2018-Jan-04 05:00N 34°12' E 132°29'0 0.0
2018-Jan-04 04:30N 34°12' E 132°29'0 0.0
2018-Jan-04 03:57N 34°12' E 132°29'0 0.0
2018-Jan-04 03:27N 34°12' E 132°29'0 0.0
2018-Jan-04 02:57N 34°12' E 132°29'0 0.0
2018-Jan-04 02:30N 34°12' E 132°29'0 0.0
2018-Jan-04 02:00N 34°12' E 132°29'0 0.0
2018-Jan-04 01:30N 34°12' E 132°29'0 0.0
2018-Jan-04 01:00N 34°12' E 132°29'0 0.0
2018-Jan-04 00:30N 34°12' E 132°29'0 0.0
2018-Jan-03 23:57N 34°12' E 132°29'0 0.0
2018-Jan-03 23:30N 34°12' E 132°29'0 0.0
2018-Jan-03 23:00N 34°12' E 132°29'0 0.9
2018-Jan-03 22:30N 34°12' E 132°30'1 1.2
2018-Jan-03 21:58N 34°13' E 132°30'0 0.0
2018-Jan-03 21:28N 34°13' E 132°30'0 0.0
2018-Jan-03 20:58N 34°13' E 132°30'0 0.0
2018-Jan-03 20:28N 34°13' E 132°30'0 0.1
2018-Jan-03 19:58N 34°13' E 132°30'0 0.0
2018-Jan-03 19:28N 34°13' E 132°30'0 0.0
2018-Jan-03 18:58N 34°13' E 132°30'0 0.0
2018-Jan-03 18:28N 34°13' E 132°30'0 0.0
2018-Jan-03 17:58N 34°13' E 132°30'0 0.0
2018-Jan-03 17:28N 34°13' E 132°30'0 0.1
2018-Jan-03 16:58N 34°13' E 132°30'0 0.0
2018-Jan-03 16:25N 34°13' E 132°30'0 0.0
2018-Jan-03 15:58N 34°13' E 132°30'0 0.0
2018-Jan-03 15:28N 34°13' E 132°30'0 0.0
2018-Jan-03 14:58N 34°13' E 132°30'0 0.0
2018-Jan-03 14:25N 34°13' E 132°30'0 0.0
2018-Jan-03 13:58N 34°13' E 132°30'0 0.0
2018-Jan-03 13:28N 34°13' E 132°30'0 0.0
2018-Jan-03 12:58N 34°13' E 132°30'0 0.0
2018-Jan-03 12:28N 34°13' E 132°30'0 0.0
2018-Jan-03 11:55N 34°13' E 132°30'0 0.0
2018-Jan-03 11:28N 34°13' E 132°30'0 0.0
2018-Jan-03 10:58N 34°13' E 132°30'0 0.0
2018-Jan-03 10:28N 34°13' E 132°30'0 0.0
2018-Jan-03 09:58N 34°13' E 132°30'0 0.0
2018-Jan-03 09:28N 34°13' E 132°30'0 0.0
2018-Jan-03 08:58N 34°13' E 132°30'0 0.0
2018-Jan-03 08:28N 34°13' E 132°30'0 0.0
2018-Jan-03 07:58N 34°13' E 132°30'0 0.0
2018-Jan-03 07:25N 34°13' E 132°30'0 0.0
2018-Jan-03 06:58N 34°13' E 132°30'0 0.0
2018-Jan-03 06:28N 34°13' E 132°30'0 0.0
2018-Jan-03 05:58N 34°13' E 132°30'0 0.0
2018-Jan-03 05:28N 34°13' E 132°30'0 0.0
2018-Jan-03 04:58N 34°13' E 132°30'0 0.0
2018-Jan-03 04:28N 34°13' E 132°30'0 0.0
2018-Jan-03 03:58N 34°13' E 132°30'0 0.0
2018-Jan-03 03:25N 34°13' E 132°30'0 0.0
2018-Jan-03 02:58N 34°13' E 132°30'0 0.0
2018-Jan-03 02:28N 34°13' E 132°30'0 0.0
2018-Jan-03 01:58N 34°13' E 132°30'0 0.0
2018-Jan-03 01:25N 34°13' E 132°30'0 0.0
2018-Jan-03 00:58N 34°13' E 132°30'0 0.0
2018-Jan-03 00:28N 34°13' E 132°30'0 0.0
2018-Jan-02 23:58N 34°13' E 132°30'0 0.0
2018-Jan-02 23:28N 34°13' E 132°30'0 0.0
2018-Jan-02 22:58N 34°13' E 132°30'0 0.0
2018-Jan-02 22:28N 34°13' E 132°30'0 0.1
2018-Jan-02 21:58N 34°13' E 132°30'0 0.0
2018-Jan-02 21:28N 34°13' E 132°30'0 0.0
2018-Jan-02 20:58N 34°13' E 132°30'0 0.0
2018-Jan-02 20:25N 34°13' E 132°30'0 0.0
2018-Jan-02 19:58N 34°13' E 132°30'0 0.0
2018-Jan-02 19:27N 34°13' E 132°30'0 0.0
2018-Jan-02 18:54N 34°13' E 132°30'0 0.0
2018-Jan-02 18:30N 34°13' E 132°30'0 0.0
2018-Jan-02 18:00N 34°13' E 132°30'0 0.1
2018-Jan-02 17:27N 34°13' E 132°30'3 5.8
2018-Jan-02 17:01N 34°15' E 132°31'3 7.0
2018-Jan-02 16:31N 34°18' E 132°28'5 9.0
2018-Jan-02 16:00N 34°16' E 132°23'4 7.6
2018-Jan-02 15:30N 34°13' E 132°20'4 8.7
2018-Jan-02 15:00N 34°09' E 132°22'11 8.7
2018-Jan-02 13:42N 34°00' E 132°31'2 7.5
2018-Jan-02 13:29N 33°59' E 132°32'42 8.2
2018-Jan-02 08:22N 33°45' E 131°44'  

Dump ship's entire track history